createdAt,value
2017-12-08T00:01:04.163Z,99927.14
2017-12-08T00:03:31.832Z,99926.73
2017-12-08T00:05:59.376Z,99925.01
2017-12-08T00:08:26.924Z,99923.98
2017-12-08T00:10:54.478Z,99925.84
2017-12-08T00:13:22.031Z,99921.00
2017-12-08T00:15:49.588Z,99918.22
2017-12-08T00:18:17.147Z,99915.42
2017-12-08T00:20:44.762Z,99920.09
2017-12-08T00:23:12.316Z,99915.81
2017-12-08T00:25:39.869Z,99903.52
2017-12-08T00:28:07.412Z,99913.53
2017-12-08T00:30:34.967Z,99915.35
2017-12-08T00:33:02.527Z,99914.66
2017-12-08T00:35:30.076Z,99909.38
2017-12-08T00:37:58.406Z,99909.67
2017-12-08T00:40:26.715Z,99909.86
2017-12-08T00:42:54.264Z,99913.78
2017-12-08T00:45:21.816Z,99918.03
2017-12-08T00:47:49.368Z,99915.80
2017-12-08T00:50:16.919Z,99918.67
2017-12-08T00:52:45.413Z,99917.11
2017-12-08T00:55:12.969Z,99913.35
2017-12-08T00:57:40.518Z,99915.81
2017-12-08T01:00:08.061Z,99908.49
2017-12-08T01:02:35.616Z,99905.62
2017-12-08T01:05:03.170Z,99902.92
2017-12-08T01:07:30.748Z,99898.97
2017-12-08T01:09:58.295Z,99898.34
2017-12-08T01:12:25.850Z,99894.71
2017-12-08T01:14:53.409Z,99898.66
2017-12-08T01:17:20.996Z,99897.66
2017-12-08T01:19:48.541Z,99895.11
2017-12-08T01:22:16.097Z,99895.17
2017-12-08T01:24:43.650Z,99881.14
2017-12-08T01:27:11.248Z,99888.10
2017-12-08T01:29:38.804Z,99885.34
2017-12-08T01:32:06.359Z,99886.06
2017-12-08T01:34:34.613Z,99882.70
2017-12-08T01:37:02.163Z,99884.92
2017-12-08T01:39:29.711Z,99877.67
2017-12-08T01:41:58.173Z,99873.11
2017-12-08T01:44:25.725Z,99872.19
2017-12-08T01:46:53.283Z,99875.80
2017-12-08T01:49:20.832Z,99871.16
2017-12-08T01:51:48.391Z,99865.75
2017-12-08T01:54:15.944Z,99858.87
2017-12-08T01:56:44.180Z,99853.39
2017-12-08T01:59:11.791Z,99858.63
2017-12-08T02:01:39.347Z,99857.03
2017-12-08T02:04:07.709Z,99860.93
2017-12-08T02:06:35.268Z,99851.51
2017-12-08T02:09:02.834Z,99847.63
2017-12-08T02:11:30.416Z,99847.14
2017-12-08T02:13:57.974Z,99849.67
2017-12-08T02:16:25.534Z,99850.77
2017-12-08T02:18:53.089Z,99845.86
2017-12-08T02:21:20.640Z,99848.34
2017-12-08T02:23:48.192Z,99854.71
2017-12-08T02:26:15.744Z,99849.73
2017-12-08T02:28:43.620Z,99849.30
2017-12-08T02:31:11.173Z,99853.45
2017-12-08T02:33:38.767Z,99857.97
2017-12-08T02:36:06.320Z,99852.78
2017-12-08T02:38:33.876Z,99851.88
2017-12-08T02:41:01.450Z,99850.95
2017-12-08T02:43:29.000Z,99852.95
2017-12-08T02:45:56.553Z,99857.80
2017-12-08T02:48:24.137Z,99861.78
2017-12-08T02:50:51.684Z,99860.81
2017-12-08T02:53:19.242Z,99849.12
2017-12-08T02:55:46.812Z,99851.80
2017-12-08T02:58:14.413Z,99856.95
2017-12-08T03:00:41.972Z,99844.50
2017-12-08T03:03:09.536Z,99846.14
2017-12-08T03:05:37.092Z,99840.11
2017-12-08T03:08:04.713Z,99829.30
2017-12-08T03:10:32.272Z,99821.01
2017-12-08T03:12:59.936Z,99805.16
2017-12-08T03:15:27.491Z,99811.07
2017-12-08T03:17:55.057Z,99826.37
2017-12-08T03:20:22.605Z,99824.98
2017-12-08T03:22:50.163Z,99819.62
2017-12-08T03:25:17.716Z,99827.59
2017-12-08T03:27:45.271Z,99816.47
2017-12-08T03:30:12.869Z,99817.40
2017-12-08T03:32:40.452Z,99822.59
2017-12-08T03:35:08.008Z,99830.23
2017-12-08T03:37:35.639Z,99820.48
2017-12-08T03:40:03.180Z,99829.00
2017-12-08T03:42:30.730Z,99826.52
2017-12-08T03:44:58.294Z,99830.77
2017-12-08T03:47:25.843Z,99824.91
2017-12-08T03:49:53.392Z,99821.22
2017-12-08T03:52:20.954Z,99820.53
2017-12-08T03:54:48.499Z,99822.98
2017-12-08T03:57:16.052Z,99820.53
2017-12-08T03:59:43.605Z,99812.91
2017-12-08T04:02:11.165Z,99825.74
2017-12-08T04:04:38.756Z,99830.73
2017-12-08T04:07:06.302Z,99827.66
2017-12-08T04:09:33.856Z,99819.14
2017-12-08T04:12:02.216Z,99817.22
2017-12-08T04:14:30.527Z,99818.03
2017-12-08T04:16:58.080Z,99818.78
2017-12-08T04:19:25.632Z,99819.82
2017-12-08T04:21:53.176Z,99808.63
2017-12-08T04:24:21.621Z,99820.31
2017-12-08T04:26:49.931Z,99830.78
2017-12-08T04:29:18.327Z,99834.67
2017-12-08T04:31:45.887Z,99834.53
2017-12-08T04:34:13.436Z,99844.64
2017-12-08T04:36:41.924Z,99849.02
2017-12-08T04:39:10.261Z,99849.67
2017-12-08T04:41:38.639Z,99848.33
2017-12-08T04:44:06.184Z,99853.64
2017-12-08T04:46:33.731Z,99857.88
2017-12-08T04:49:02.092Z,99855.36
2017-12-08T04:51:30.536Z,99850.47
2017-12-08T04:53:58.884Z,99850.11
2017-12-08T04:56:27.318Z,99854.10
2017-12-08T04:58:55.757Z,99853.33
2017-12-08T05:01:23.304Z,99862.53
2017-12-08T05:03:50.852Z,99865.78
2017-12-08T05:06:18.403Z,99866.73
2017-12-08T05:08:45.956Z,99863.97
2017-12-08T05:11:13.501Z,99864.55
2017-12-08T05:13:41.053Z,99873.47
2017-12-08T05:16:08.596Z,99872.59
2017-12-08T05:18:36.140Z,99866.14
2017-12-08T05:21:03.688Z,99870.03
2017-12-08T05:23:32.080Z,99870.87
2017-12-08T05:25:59.628Z,99876.67
2017-12-08T05:28:27.176Z,99874.19
2017-12-08T05:30:54.726Z,99879.41
2017-12-08T05:33:22.282Z,99872.30
2017-12-08T05:35:49.836Z,99869.12
2017-12-08T05:38:17.442Z,99865.78
2017-12-08T05:40:44.987Z,99869.22
2017-12-08T05:43:12.533Z,99868.46
2017-12-08T05:45:40.124Z,99871.02
2017-12-08T05:48:08.584Z,99869.40
2017-12-08T05:50:36.134Z,99858.80
2017-12-08T05:53:03.691Z,99859.89
2017-12-08T05:55:31.323Z,99862.58
2017-12-08T05:57:58.876Z,99860.35
2017-12-08T06:00:26.420Z,99870.63
2017-12-08T06:02:53.969Z,99870.45
2017-12-08T06:05:22.385Z,99875.61
2017-12-08T06:07:50.843Z,99884.50
2017-12-08T06:10:19.149Z,99886.87
2017-12-08T06:12:46.697Z,99879.61
2017-12-08T06:15:14.244Z,99882.51
2017-12-08T06:17:41.787Z,99882.25
2017-12-08T06:20:09.333Z,99887.42
2017-12-08T06:22:36.887Z,99890.08
2017-12-08T06:25:04.440Z,99887.66
2017-12-08T06:27:32.020Z,99889.24
2017-12-08T06:29:59.573Z,99887.98
2017-12-08T06:32:27.196Z,99890.77
2017-12-08T06:34:54.748Z,99884.37
2017-12-08T06:37:22.300Z,99884.88
2017-12-08T06:39:50.743Z,99887.88
2017-12-08T06:42:18.296Z,99888.50
2017-12-08T06:44:45.847Z,99885.52
2017-12-08T06:47:13.478Z,99893.76
2017-12-08T06:49:41.040Z,99886.50
2017-12-08T06:52:08.584Z,99881.69
2017-12-08T06:54:36.128Z,99900.52
2017-12-08T06:57:03.729Z,99905.15
2017-12-08T06:59:32.103Z,99911.46
2017-12-08T07:02:00.552Z,99917.99
2017-12-08T07:04:28.107Z,99907.50
2017-12-08T07:06:55.658Z,99910.55
2017-12-08T07:09:23.211Z,99920.85
2017-12-08T07:11:51.523Z,99931.69
2017-12-08T07:14:20.028Z,99921.88
2017-12-08T07:16:47.684Z,99920.47
2017-12-08T07:19:15.228Z,99930.46
2017-12-08T07:21:42.812Z,99922.48
2017-12-08T07:24:10.473Z,99932.59
2017-12-08T07:26:38.015Z,99934.45
2017-12-08T07:29:05.597Z,99933.23
2017-12-08T07:31:33.254Z,99939.19
2017-12-08T07:34:00.840Z,99936.13
2017-12-08T07:36:28.476Z,99933.17
2017-12-08T07:38:56.046Z,99950.09
2017-12-08T07:41:23.595Z,99947.54
2017-12-08T07:43:51.142Z,99940.37
2017-12-08T07:46:18.779Z,99945.48
2017-12-08T07:48:47.310Z,99943.03
2017-12-08T07:51:14.865Z,99945.41
2017-12-08T07:53:42.425Z,99946.81
2017-12-08T07:56:10.098Z,99946.43
2017-12-08T07:58:37.756Z,99948.07
2017-12-08T08:01:05.421Z,99955.08
2017-12-08T08:03:33.076Z,99945.42
2017-12-08T08:06:00.628Z,99948.06
2017-12-08T08:08:28.177Z,99950.59
2017-12-08T08:10:55.868Z,99946.41
2017-12-08T08:13:24.240Z,99946.33
2017-12-08T08:15:51.794Z,99947.48
2017-12-08T08:18:19.352Z,99958.12
2017-12-08T08:20:46.906Z,99961.30
2017-12-08T08:23:14.493Z,99966.11
2017-12-08T08:25:42.063Z,99958.88
2017-12-08T08:28:10.545Z,99964.47
2017-12-08T08:30:38.198Z,99964.46
2017-12-08T08:33:05.749Z,99973.31
2017-12-08T08:35:34.073Z,99969.58
2017-12-08T08:38:02.621Z,99956.38
2017-12-08T08:40:30.997Z,99963.67
2017-12-08T08:42:58.565Z,99969.81
2017-12-08T08:45:26.221Z,99961.95
2017-12-08T08:47:54.804Z,99964.45
2017-12-08T08:50:22.386Z,99977.97
2017-12-08T08:52:49.940Z,99976.71
2017-12-08T08:55:18.312Z,99983.53
2017-12-08T08:57:46.713Z,99978.80
2017-12-08T09:00:15.161Z,99983.00
2017-12-08T09:02:42.712Z,99987.63
2017-12-08T09:05:10.274Z,99990.53
2017-12-08T09:07:37.854Z,99989.38
2017-12-08T09:10:05.418Z,99997.81
2017-12-08T09:12:32.984Z,99998.55
2017-12-08T09:15:00.553Z,99995.33
2017-12-08T09:17:29.113Z,99997.86
2017-12-08T09:19:56.708Z,100005.60
2017-12-08T09:22:24.265Z,100000.89
2017-12-08T09:24:52.829Z,100001.13
2017-12-08T09:27:21.201Z,99998.81
2017-12-08T09:29:49.689Z,100000.87
2017-12-08T09:32:18.110Z,100000.83
2017-12-08T09:34:45.668Z,100001.64
2017-12-08T09:37:14.077Z,99995.31
2017-12-08T09:39:42.479Z,100000.13
2017-12-08T09:42:10.946Z,100000.61
2017-12-08T09:44:39.282Z,99993.74
2017-12-08T09:47:06.833Z,99993.58
2017-12-08T09:49:34.469Z,99990.16
2017-12-08T09:52:02.104Z,100000.60
2017-12-08T09:54:30.665Z,100001.52
2017-12-08T09:56:59.201Z,100001.83
2017-12-08T09:59:26.791Z,99995.47
2017-12-08T10:01:54.424Z,99995.15
2017-12-08T10:04:22.012Z,99998.48
2017-12-08T10:06:49.564Z,99992.64
2017-12-08T10:09:17.207Z,99990.45
2017-12-08T10:11:44.837Z,99987.41
2017-12-08T10:14:13.616Z,99986.68
2017-12-08T10:16:42.210Z,99977.69
2017-12-08T10:19:09.872Z,99984.53
2017-12-08T10:21:37.486Z,99978.83
2017-12-08T10:24:05.074Z,99970.96
2017-12-08T10:26:33.620Z,99978.67
2017-12-08T10:29:02.095Z,99968.94
2017-12-08T10:31:30.717Z,99980.41
2017-12-08T10:33:58.386Z,99972.47
2017-12-08T10:36:25.980Z,99975.68
2017-12-08T10:38:53.552Z,99971.50
2017-12-08T10:41:21.730Z,99972.26
2017-12-08T10:43:49.298Z,99963.72
2017-12-08T10:46:17.693Z,99971.15
2017-12-08T10:48:45.249Z,99959.94
2017-12-08T10:51:13.629Z,99966.74
2017-12-08T10:53:42.212Z,99975.38
2017-12-08T10:56:09.873Z,99966.53
2017-12-08T10:58:37.412Z,99984.09
2017-12-08T11:01:04.993Z,99981.91
2017-12-08T11:03:32.582Z,99981.42
2017-12-08T11:06:00.124Z,99984.19
2017-12-08T11:08:27.696Z,99993.83
2017-12-08T11:10:55.867Z,99992.53
2017-12-08T11:13:23.508Z,99987.92
2017-12-08T11:15:51.153Z,99994.04
2017-12-08T11:18:19.777Z,99973.62
2017-12-08T11:20:47.497Z,99985.77
2017-12-08T11:23:16.474Z,99964.45
2017-12-08T11:25:44.077Z,99989.62
2017-12-08T11:28:11.668Z,99979.96
2017-12-08T11:30:39.276Z,99979.95
2017-12-08T11:33:06.821Z,99976.47
2017-12-08T11:35:34.640Z,99962.27
2017-12-08T11:38:03.282Z,99969.26
2017-12-08T11:40:30.840Z,99971.78
2017-12-08T11:42:58.401Z,99975.63
2017-12-08T11:45:26.004Z,99981.77
2017-12-08T11:47:53.600Z,99976.41
2017-12-08T11:50:21.184Z,99973.77
2017-12-08T11:52:48.732Z,99974.95
2017-12-08T11:55:16.325Z,99972.71
2017-12-08T11:57:43.908Z,99984.33
2017-12-08T12:00:11.448Z,99966.36
2017-12-08T12:02:39.001Z,99967.47
2017-12-08T12:05:06.553Z,99965.81
2017-12-08T12:07:34.113Z,99960.40
2017-12-08T12:10:01.664Z,99956.78
2017-12-08T12:12:29.276Z,99967.47
2017-12-08T12:14:58.612Z,99960.94
2017-12-08T12:17:26.669Z,99966.85
2017-12-08T12:19:55.408Z,99965.06
2017-12-08T12:22:23.098Z,99971.53
2017-12-08T12:24:50.692Z,99957.38
2017-12-08T12:27:18.285Z,99967.84
2017-12-08T12:29:50.633Z,99972.81
2017-12-08T12:32:19.013Z,99978.09
2017-12-08T12:34:47.520Z,99973.52
2017-12-08T12:37:17.834Z,99990.74
2017-12-08T12:39:45.410Z,99979.56
2017-12-08T12:42:14.135Z,99972.78
2017-12-08T12:44:42.781Z,99972.03
2017-12-08T12:47:10.330Z,99975.48
2017-12-08T12:49:40.888Z,99970.95
2017-12-08T12:52:09.087Z,99963.06
2017-12-08T12:54:37.727Z,99973.91
2017-12-08T12:57:06.251Z,99965.60
2017-12-08T12:59:33.838Z,99958.22
2017-12-08T13:02:01.470Z,99964.06
2017-12-08T13:04:29.122Z,99971.27
2017-12-08T13:06:57.986Z,99964.05
2017-12-08T13:09:25.554Z,99971.07
2017-12-08T13:11:53.129Z,99966.19
2017-12-08T13:14:20.710Z,99972.06
2017-12-08T13:16:48.262Z,99962.37
2017-12-08T13:19:15.808Z,99965.67
2017-12-08T13:21:43.359Z,99978.41
2017-12-08T13:24:11.226Z,99964.38
2017-12-08T13:26:38.779Z,99960.82
2017-12-08T13:29:07.260Z,99960.09
2017-12-08T13:31:34.857Z,99967.53
2017-12-08T13:34:02.399Z,99961.77
2017-12-08T13:36:29.991Z,99968.49
2017-12-08T13:38:57.547Z,99946.66
2017-12-08T13:41:25.900Z,99958.39
2017-12-08T13:43:53.484Z,99965.70
2017-12-08T13:46:21.141Z,99954.82
2017-12-08T13:48:48.710Z,99957.16
2017-12-08T13:51:16.265Z,99951.03
2017-12-08T13:53:55.604Z,99966.25
2017-12-08T13:56:35.188Z,99958.39
2017-12-08T13:59:02.737Z,99962.83
2017-12-08T14:01:30.366Z,99976.64
2017-12-08T14:03:57.916Z,99968.25
2017-12-08T14:06:25.500Z,99971.08
2017-12-08T14:08:53.047Z,99976.83
2017-12-08T14:11:20.587Z,99971.69
2017-12-08T14:13:48.136Z,99976.06
2017-12-08T14:16:15.701Z,99970.86
2017-12-08T14:18:43.572Z,99968.44
2017-12-08T14:21:11.122Z,99967.62
2017-12-08T14:23:38.669Z,99964.69
2017-12-08T14:26:06.335Z,99972.35
2017-12-08T14:28:33.944Z,99975.64
2017-12-08T14:31:01.508Z,99975.53
2017-12-08T14:33:29.052Z,99978.98
2017-12-08T14:35:56.612Z,99970.12
2017-12-08T14:38:24.150Z,99969.34
2017-12-08T14:40:51.707Z,99972.73
2017-12-08T14:43:19.276Z,99978.45
2017-12-08T14:45:46.853Z,99973.91
2017-12-08T14:48:14.403Z,99966.02
2017-12-08T14:50:41.994Z,99975.47
2017-12-08T14:53:09.580Z,99977.30
2017-12-08T14:55:37.619Z,99977.52
2017-12-08T14:58:12.246Z,99969.29
2017-12-08T15:00:41.560Z,99976.47
2017-12-08T15:03:09.315Z,99977.62
2017-12-08T15:05:36.962Z,99975.03
2017-12-08T15:08:04.640Z,99985.77
2017-12-08T15:10:32.325Z,99979.61
2017-12-08T15:12:59.970Z,99978.31
2017-12-08T15:15:27.513Z,99977.84
2017-12-08T15:17:55.056Z,99980.84
2017-12-08T15:20:22.613Z,99978.50
2017-12-08T15:22:50.217Z,99977.30
2017-12-08T15:25:17.946Z,99983.97
2017-12-08T15:27:45.596Z,99981.88
2017-12-08T15:30:13.197Z,99977.87
2017-12-08T15:32:41.004Z,99980.38
2017-12-08T15:35:09.238Z,99979.42
2017-12-08T15:37:37.728Z,99987.03
2017-12-08T15:40:05.280Z,99982.26
2017-12-08T15:42:33.613Z,99982.83
2017-12-08T15:45:01.332Z,99980.16
2017-12-08T15:47:28.988Z,99981.67
2017-12-08T15:49:56.564Z,99976.56
2017-12-08T15:52:24.117Z,99977.11
2017-12-08T15:54:51.771Z,99979.60
2017-12-08T15:57:19.438Z,99975.08
2017-12-08T15:59:47.031Z,99979.86
2017-12-08T16:02:14.623Z,99975.44
2017-12-08T16:04:42.186Z,99969.63
2017-12-08T16:07:09.790Z,99973.40
2017-12-08T16:09:37.518Z,99979.13
2017-12-08T16:12:05.072Z,99975.25
2017-12-08T16:14:32.619Z,99970.78
2017-12-08T16:17:00.237Z,99976.11
2017-12-08T16:19:27.896Z,99970.55
2017-12-08T16:21:55.441Z,99970.93
2017-12-08T16:24:22.989Z,99971.30
2017-12-08T16:26:50.580Z,99971.50
2017-12-08T16:29:18.129Z,99976.69
2017-12-08T16:31:45.683Z,99995.30
2017-12-08T16:34:13.274Z,100011.52
2017-12-08T16:36:40.841Z,100038.09
2017-12-08T16:39:08.443Z,100041.91
2017-12-08T16:41:36.003Z,100045.20
2017-12-08T16:44:03.548Z,100040.92
2017-12-08T16:46:31.168Z,100055.55
2017-12-08T16:48:58.758Z,100059.06
2017-12-08T16:51:26.313Z,100056.81
2017-12-08T16:53:53.904Z,100059.55
2017-12-08T16:56:21.467Z,100063.74
2017-12-08T16:58:49.024Z,100065.73
2017-12-08T17:01:16.591Z,100057.10
2017-12-08T17:03:44.291Z,100047.34
2017-12-08T17:06:12.663Z,100053.67
2017-12-08T17:08:40.241Z,100053.52
2017-12-08T17:11:07.793Z,100050.11
2017-12-08T17:13:36.446Z,100050.89
2017-12-08T17:16:04.956Z,100050.30
2017-12-08T17:18:32.519Z,100046.86
2017-12-08T17:21:00.084Z,100048.34
2017-12-08T17:23:28.432Z,100044.09
2017-12-08T17:25:56.023Z,100053.67
2017-12-08T17:28:23.576Z,100051.23
2017-12-08T17:30:51.139Z,100066.36
2017-12-08T17:33:18.704Z,100063.89
2017-12-08T17:35:46.337Z,100065.09
2017-12-08T17:38:13.932Z,100061.52
2017-12-08T17:40:41.486Z,100061.96
2017-12-08T17:43:09.054Z,100058.19
2017-12-08T17:45:36.712Z,100065.91
2017-12-08T17:48:04.279Z,100062.30
2017-12-08T17:50:32.005Z,100062.33
2017-12-08T17:52:59.600Z,100059.21
2017-12-08T17:55:28.291Z,100052.42
2017-12-08T17:57:55.943Z,100054.91
2017-12-08T18:00:23.683Z,100053.31
2017-12-08T18:02:51.235Z,100049.03
2017-12-08T18:05:18.832Z,100045.55
2017-12-08T18:07:46.379Z,100043.70
2017-12-08T18:10:13.929Z,100044.66
2017-12-08T18:12:41.477Z,100037.43
2017-12-08T18:15:09.028Z,100040.89
2017-12-08T18:17:36.640Z,100044.11
2017-12-08T18:20:04.192Z,100040.83
2017-12-08T18:22:31.752Z,100042.52
2017-12-08T18:24:59.305Z,100038.25
2017-12-08T18:27:26.897Z,100039.94
2017-12-08T18:29:54.453Z,100043.12
2017-12-08T18:32:22.023Z,100044.11
2017-12-08T18:34:49.595Z,100040.86
2017-12-08T18:37:18.007Z,100049.45
2017-12-08T18:39:45.575Z,100045.01
2017-12-08T18:42:13.765Z,100034.22
2017-12-08T18:44:41.369Z,100038.46
2017-12-08T18:47:08.922Z,100045.99
2017-12-08T18:49:36.472Z,100044.55
2017-12-08T18:52:04.716Z,100039.83
2017-12-08T18:54:32.311Z,100034.49
2017-12-08T18:56:59.977Z,100035.93
2017-12-08T18:59:27.626Z,100040.92
2017-12-08T19:01:56.236Z,100033.22
2017-12-08T19:04:24.591Z,100043.00
2017-12-08T19:06:52.973Z,100043.56
2017-12-08T19:09:21.456Z,100049.52
2017-12-08T19:11:49.116Z,100045.75
2017-12-08T19:14:16.665Z,100049.70
2017-12-08T19:16:44.236Z,100067.06
2017-12-08T19:19:12.621Z,100061.34
2017-12-08T19:21:41.228Z,100063.11
2017-12-08T19:24:09.724Z,100061.73
2017-12-08T19:26:37.283Z,100060.14
2017-12-08T19:29:04.837Z,100063.80
2017-12-08T19:31:32.464Z,100058.88
2017-12-08T19:34:00.024Z,100055.69
2017-12-08T19:36:27.690Z,100073.70
2017-12-08T19:38:56.316Z,100074.02
2017-12-08T19:41:23.864Z,100073.14
2017-12-08T19:43:51.475Z,100076.89
2017-12-08T19:46:19.029Z,100087.83
2017-12-08T19:48:46.624Z,100088.72
2017-12-08T19:51:14.182Z,100094.52
2017-12-08T19:53:41.841Z,100098.64
2017-12-08T19:56:09.473Z,100102.39
2017-12-08T19:58:37.135Z,100095.98
2017-12-08T20:01:04.736Z,100103.14
2017-12-08T20:03:32.341Z,100112.48
2017-12-08T20:06:00.938Z,100113.59
2017-12-08T20:08:28.499Z,100116.62
2017-12-08T20:10:56.102Z,100116.39
2017-12-08T20:13:23.665Z,100114.00
2017-12-08T20:15:51.220Z,100137.12
2017-12-08T20:18:18.890Z,100128.59
2017-12-08T20:20:46.483Z,100142.89
2017-12-08T20:23:14.103Z,100149.44
2017-12-08T20:25:41.662Z,100151.33
2017-12-08T20:28:09.208Z,100144.39
2017-12-08T20:30:36.764Z,100143.13
2017-12-08T20:33:04.331Z,100153.77
2017-12-08T20:35:31.885Z,100156.58
2017-12-08T20:37:59.443Z,100159.07
2017-12-08T20:40:27.132Z,100171.26
2017-12-08T20:42:54.687Z,100170.38
2017-12-08T20:45:22.276Z,100166.27
2017-12-08T20:47:49.840Z,100175.72
2017-12-08T20:50:17.404Z,100173.25
2017-12-08T20:52:45.008Z,100172.68
2017-12-08T20:55:12.577Z,100182.92
2017-12-08T20:57:40.160Z,100167.11
2017-12-08T21:00:07.824Z,100172.52
2017-12-08T21:02:35.384Z,100172.61
2017-12-08T21:05:03.065Z,100176.44
2017-12-08T21:07:30.620Z,100174.09
2017-12-08T21:09:59.091Z,100172.87
2017-12-08T21:12:27.440Z,100181.19
2017-12-08T21:14:55.033Z,100187.38
2017-12-08T21:17:22.592Z,100181.84
2017-12-08T21:19:50.148Z,100187.27
2017-12-08T21:22:17.780Z,100186.13
2017-12-08T21:24:45.380Z,100178.56
2017-12-08T21:27:13.036Z,100183.07
2017-12-08T21:29:40.662Z,100178.23
2017-12-08T21:32:08.260Z,100187.48
2017-12-08T21:34:36.644Z,100185.58
2017-12-08T21:37:05.030Z,100189.54
2017-12-08T21:39:33.406Z,100193.39
2017-12-08T21:42:01.523Z,100199.23
2017-12-08T21:44:29.136Z,100199.70
2017-12-08T21:46:56.696Z,100201.08
2017-12-08T21:49:25.183Z,100201.98
2017-12-08T21:51:53.455Z,100206.30
2017-12-08T21:54:21.858Z,100203.49
2017-12-08T21:56:50.118Z,100204.95
2017-12-08T21:59:18.557Z,100189.75
2017-12-08T22:01:46.124Z,100189.45
2017-12-08T22:04:13.683Z,100193.18
2017-12-08T22:06:41.379Z,100195.88
2017-12-08T22:09:09.045Z,100192.69
2017-12-08T22:11:36.706Z,100196.55
2017-12-08T22:14:04.260Z,100193.11
2017-12-08T22:16:31.808Z,100193.25
2017-12-08T22:18:59.398Z,100193.16
2017-12-08T22:21:26.976Z,100197.53
2017-12-08T22:23:54.537Z,100207.30
2017-12-08T22:26:22.138Z,100199.52
2017-12-08T22:28:50.929Z,100211.95
2017-12-08T22:31:18.522Z,100211.86
2017-12-08T22:34:01.108Z,100214.22
2017-12-08T22:36:33.614Z,100213.66
2017-12-08T22:39:03.301Z,100218.46
2017-12-08T22:41:30.886Z,100221.92
2017-12-08T22:43:59.255Z,100221.97
2017-12-08T22:46:27.640Z,100213.00
2017-12-08T22:48:55.195Z,100220.02
2017-12-08T22:51:22.968Z,100222.91
2017-12-08T22:53:50.753Z,100218.30
2017-12-08T22:56:18.305Z,100224.99
2017-12-08T22:58:45.861Z,100233.41
2017-12-08T23:01:13.532Z,100232.97
2017-12-08T23:03:41.177Z,100236.52
2017-12-08T23:06:08.740Z,100229.42
2017-12-08T23:08:36.413Z,100226.83
2017-12-08T23:11:04.077Z,100223.15
2017-12-08T23:13:31.693Z,100209.30
2017-12-08T23:15:59.285Z,100211.34
2017-12-08T23:18:26.925Z,100210.63
2017-12-08T23:20:54.516Z,100206.28
2017-12-08T23:23:22.077Z,100211.57
2017-12-08T23:25:49.740Z,100203.75
2017-12-08T23:28:17.345Z,100215.25
2017-12-08T23:30:45.010Z,100213.66
2017-12-08T23:33:12.578Z,100217.58
2017-12-08T23:35:40.197Z,100224.58
2017-12-08T23:38:07.772Z,100216.37
2017-12-08T23:40:35.408Z,100231.23
2017-12-08T23:43:03.073Z,100238.88
2017-12-08T23:45:30.736Z,100234.25
2017-12-08T23:47:58.336Z,100233.98
2017-12-08T23:50:25.943Z,100242.27
2017-12-08T23:52:53.517Z,100228.94
2017-12-08T23:55:21.079Z,100228.97
2017-12-08T23:57:48.643Z,100224.69
